Résultats

Trail de Castellas - Express - 8 km. Édition 2018.

8 Km
22/04/2018 à 10:00:00 - BELCODENE (13)
108 arrivant(e)s.





Place▲ Temps Dossard Nom Prenom Categ #Categ Sexe #Sexe Club Vit Moy Diplôme Partager
1 00:33:37 742 HADRZYNSKI MARC M2M 1 M 1 TEAM MARATHONIEN 14.28
2 00:35:00 733 DOUCET NICOLAS M1M 1 M 2 TRIATHL'AIX 13.71
3 00:37:50 747 BLANC FREDERIC M1M 2 M 3 AIX ATHLE PROVENCE 12.69
4 00:39:55 731 GILARDEAU MICHEL M2M 2 M 4 LA FOULEE DE GREASQUE 12.03
5 00:40:17 712 N:Anonyme 712 P:Anonyme 712 CAM 1 M 5 11.92
6 00:41:20 770 DELEBARRE CESAR SEM 1 M 6 AIX ATHLE PROVENCE 11.61
7 00:41:28 616 RORATO EDDY M1M 3 M 7 LES FOULEES DU LORIOT 11.58
8 00:41:49 748 ROUSSEL ELODIE SEF 1 F 1 AIX ATHLE PROVENCE 11.48
9 00:43:21 699 COUVE BERNARD M3M 1 M 8 ATSCAF13 11.07
10 00:44:25 749 PAVIA JEREMY SEM 2 M 9 10.81
11 00:45:12 726 SOUTY GUILLAUME SEM 3 M 10 . 10.62
12 00:46:29 769 MANIGEANS PATRICE M1M 4 M 11 10.33
13 00:46:29 728 N:Anonyme 728 P:Anonyme 728 CAM 2 M 12 10.33
14 00:46:58 734 CERES ROBERT M2M 3 M 13 LA MOTTE 10.22
15 00:47:21 667 AZAM FLORENT SEM 4 M 14 10.14
16 00:47:42 744 MARI JB M1M 5 M 15 . 10.06
17 00:48:42 741 GOMEZ CHRISTOPHE SEM 5 M 16 9.86
18 00:49:35 701 BARBIER DENIS M4M 1 M 17 OCCP LA CIOTAT 9.68
19 00:50:09 615 DEBAUCHE CHRISTOPHE M2M 4 M 18 LA FOULEE DE GREASQUE 9.57
20 00:50:10 655 POLETTI GHISLAIN SEM 6 M 19 9.57
21 00:50:15 658 LEFEBVRE PASCALE M1F 1 F 2 FSGT GARDANNE 9.55
22 00:50:33 710 GARREL FLORIAN JUM 1 M 20 . 9.50
23 00:50:37 715 CAPPETTI PIERRE SEM 7 M 21 - 9.48
24 00:50:41 722 LOKOS STEPHANIE M1F 2 F 3 LFA TRETS 9.47
25 00:51:07 750 MEJEAN PIERRE SEM 8 M 22 9.39
26 00:51:25 729 COLOMBIER MICHEL M3M 2 M 23 COLOMBIER 9.34
27 00:51:26 617 HEBTING MORGANE SEF 2 F 4 9.33
28 00:51:41 704 FRANCAVILLA ALAIN M2M 5 M 24 FRANCA MIKA 9.29
29 00:52:03 707 PENIN MICHAEL M1M 6 M 25 FRANCA MIKA 9.22
30 00:52:12 745 PETTAVINO PATRICE M1M 7 M 26 9.20
31 00:52:12 723 BARBIER VINCENT M1M 8 M 27 9.20
32 00:52:20 670 ANDREIS LAURENCE M2F 1 F 5 CLES GARDANNE. 9.17
33 00:52:42 656 GEORGES STEPHANE M2M 6 M 28 1966 9.11
34 00:52:49 657 POLETTI BRIAN SEM 9 M 29 9.09
35 00:52:52 666 REMIRES EMMANUEL M1M 9 M 30 9.08
36 00:52:54 713 GOUNI ANNE-LAURE SEF 3 F 6 9.07
37 00:53:26 727 KUEHN EMILIE SEF 4 F 7 8.98
38 00:53:45 746 LUMINET MELANIE M1F 3 F 8 8.93
39 00:54:32 739 GASCON KENZO CAM 3 M 31 8.80
40 00:54:34 735 DELBOS PATRICK M2M 7 M 32 LA FOULEE DE GREASQUE 8.80
41 00:54:45 717 RIVAUD ALEXIS SEM 10 M 33 FADA 8.77
42 00:54:54 662 NICOLO PASCAL SEM 11 M 34 8.74
43 00:55:33 689 BERNARD YOAN SEM 12 M 35 . 8.64
44 00:55:46 711 PIRES XAVIER M1M 10 M 36 8.61
45 00:55:53 738 PONS SYLVIA M1F 4 F 9 LFA 8.59
46 00:56:42 683 GUIBAL FRANCOISE M1F 5 F 10 NOUS 8.47
47 00:56:48 719 PETIT MYLENE M1F 6 F 11 FADA 8.45
48 00:57:14 767 FRANCESCHIN BERNARD M2M 8 M 37 8.39
49 00:57:23 697 RODRIGUEZ DELPHINE M1F 7 F 12 8.36
50 00:57:32 682 GUIBAL EMMANUEL M1M 11 M 38 LE LIEVRE ET LA TORTUE 8.34
51 00:57:36 703 CABONI CHRISTINE M2F 2 F 13 8.33
52 00:57:36 700 VERLAQUE JUSTINE SEF 5 F 14 CLES GARDANNE 8.33
53 00:57:37 716 DOYEN FRANCOISE M3F 1 F 15 8.33
54 00:58:29 708 MATHIEU GREGORY M1M 12 M 39 8.21
55 00:58:33 671 DEFILIPPI GERALDINE SEF 6 F 16 8.20
56 00:58:52 718 RIVAUD GERALDINE SEF 7 F 17 FADA 8.15
57 00:59:15 706 FRANCAVILLA LUCAS MIF 1 F 18 FRANCA MIKA 8.10
58 00:59:33 690 JALLON THIERRY M2M 9 M 40 . 8.06
59 00:59:48 743 BOUDEREAUX LAURENCE M2F 3 F 19 LE LIEVRE ET LA TORTUE 8.03
60 01:00:11 652 LEMAIRE CAROLE M1F 8 F 20 7.98
61 01:00:15 643 DAVISON CLAIRE SEF 8 F 21 7.97
62 01:00:29 674 LAROCHE MARINE SEF 9 F 22 7.94
63 01:00:38 680 TROUILLET VINCENT SEM 13 M 41 7.92
64 01:00:58 721 N:Anonyme 721 P:Anonyme 721 M1F 9 F 23 LES FADAS 7.87
65 01:00:59 646 BILLARD CLEA SEF 10 F 24 7.87
66 01:00:59 648 CLAIN CYNTHIA SEF 11 F 25 7.87
67 01:00:59 647 BREGAINT MAURANE JUF 1 F 26 7.87
68 01:01:04 698 N:Anonyme 698 P:Anonyme 698 CAM 4 M 42 . 7.86
69 01:01:07 676 LARDIERE FREDERIQUE M1F 10 F 27 7.85
70 01:01:07 677 GUILMEAU STEPHANIE M1F 11 F 28 7.85
71 01:01:10 737 BOURNE SANDRINE M1F 12 F 29 7.85
72 01:01:13 688 TORRES VIDA SEF 12 F 30 7.84
73 01:01:42 653 PACHECO VERONIQUE M1F 13 F 31 7.78
74 01:02:23 684 N:Anonyme 684 P:Anonyme 684 SEF 13 F 32 7.69
75 01:02:41 732 BECCAT JEAN-MICHEL M3M 3 M 43 7.66
76 01:02:47 663 FABRE BLANDINE M1F 14 F 33 7.65
77 01:02:47 664 MADACI DOMINIQUE M1M 13 M 44 SMAC 7.65
78 01:02:58 709 ROUMIEUX MARIE SEF 14 F 34 7.62
79 01:03:39 693 TRIC VERONIQUE M2F 4 F 35 7.54
80 01:04:24 725 POUSTOLY NINA SEF 15 F 36 . 7.45
81 01:04:44 695 MARTINS PAULO M1M 14 M 45 CE-PTC 7.42
82 01:05:26 691 BAILLY DAVID M1M 15 M 46 7.34
83 01:05:40 685 GAILLARD CHRISTOPHE M1M 16 M 47 7.31
84 01:05:42 686 GAILLARD CLAUDINE SEF 16 F 37 7.31
85 01:06:01 672 KOVAKS JAMES SEM 14 M 48 JGG 7.27
86 01:06:01 673 KOVAKS GAELLE SEF 17 F 38 JGG 7.27
87 01:06:30 736 MOURGUES ISABELLE SEF 18 F 39 7.22
88 01:06:31 714 ARTERO SEBASTIEN M1M 17 M 49 7.22
89 01:06:32 740 VEZIN VANESSA M1F 15 F 40 . 7.21
90 01:06:46 694 METSU ROGER M2M 10 M 50 7.19
91 01:06:53 642 BARRIN FLORENCE M2F 5 F 41 7.18
92 01:07:15 665 GUMB-EZEQUIEL ISALINA M1F 16 F 42 7.14
93 01:07:57 668 AMAYENC STEPHANE SEM 15 M 51 7.06
94 01:07:59 678 VOERMAN SEBASTIEN SEM 16 M 52 7.06
95 01:09:22 687 N:Anonyme 687 P:Anonyme 687 SEF 19 F 43 6.92
96 01:10:17 681 N:Anonyme 681 P:Anonyme 681 M2M 11 M 53 6.83
97 01:12:14 724 BACCUET ADELINE SEF 20 F 44 6.65
98 01:12:40 654 VAUTHIER NATHALIE SEF 21 F 45 6.61
99 01:13:53 730 COLOMBIER BERNADETTE M3F 2 F 46 COLOMBIER 6.50
100 01:14:21 641 TATARIS LAURE SEF 22 F 47 6.46